sensor_id;sensor_type;location;lat;lon;timestamp;P1;durP1;ratioP1;P2;durP2;ratioP2
29902;SDS011;30288;50.514;9.678;2023-11-19T00:01:43;1.13;;;0.50;;
29902;SDS011;30288;50.514;9.678;2023-11-19T00:05:55;1.38;;;0.60;;
29902;SDS011;30288;50.514;9.678;2023-11-19T00:08:03;3.10;;;0.70;;
29902;SDS011;30288;50.514;9.678;2023-11-19T00:10:10;1.33;;;0.52;;
29902;SDS011;30288;50.514;9.678;2023-11-19T00:12:23;2.00;;;0.70;;
29902;SDS011;30288;50.514;9.678;2023-11-19T00:14:28;0.85;;;0.57;;
29902;SDS011;30288;50.514;9.678;2023-11-19T00:16:34;1.38;;;0.77;;
29902;SDS011;30288;50.514;9.678;2023-11-19T00:18:41;2.40;;;0.70;;
29902;SDS011;30288;50.514;9.678;2023-11-19T00:20:46;3.17;;;0.82;;
29902;SDS011;30288;50.514;9.678;2023-11-19T00:22:51;1.25;;;0.68;;
29902;SDS011;30288;50.514;9.678;2023-11-19T00:24:57;1.48;;;0.90;;
29902;SDS011;30288;50.514;9.678;2023-11-19T00:27:02;0.80;;;0.65;;
29902;SDS011;30288;50.514;9.678;2023-11-19T00:29:11;1.20;;;0.80;;
29902;SDS011;30288;50.514;9.678;2023-11-19T00:31:17;1.92;;;0.88;;
29902;SDS011;30288;50.514;9.678;2023-11-19T00:33:23;2.08;;;0.90;;
29902;SDS011;30288;50.514;9.678;2023-11-19T00:35:29;2.58;;;1.10;;
29902;SDS011;30288;50.514;9.678;2023-11-19T00:37:35;2.00;;;0.90;;
29902;SDS011;30288;50.514;9.678;2023-11-19T00:39:38;2.45;;;1.10;;
29902;SDS011;30288;50.514;9.678;2023-11-19T00:41:43;2.28;;;1.02;;
29902;SDS011;30288;50.514;9.678;2023-11-19T00:43:49;1.95;;;0.82;;
29902;SDS011;30288;50.514;9.678;2023-11-19T00:45:57;5.05;;;1.13;;
29902;SDS011;30288;50.514;9.678;2023-11-19T00:48:00;3.70;;;1.10;;
29902;SDS011;30288;50.514;9.678;2023-11-19T00:50:05;1.67;;;0.98;;
29902;SDS011;30288;50.514;9.678;2023-11-19T00:52:14;2.63;;;1.23;;
29902;SDS011;30288;50.514;9.678;2023-11-19T00:54:20;1.92;;;1.15;;
29902;SDS011;30288;50.514;9.678;2023-11-19T00:56:27;2.55;;;1.50;;
29902;SDS011;30288;50.514;9.678;2023-11-19T00:58:33;2.47;;;1.15;;
29902;SDS011;30288;50.514;9.678;2023-11-19T01:00:39;2.47;;;1.27;;
29902;SDS011;30288;50.514;9.678;2023-11-19T01:02:47;2.92;;;1.35;;
29902;SDS011;30288;50.514;9.678;2023-11-19T01:04:53;3.50;;;1.20;;
29902;SDS011;30288;50.514;9.678;2023-11-19T01:06:59;2.00;;;1.10;;
29902;SDS011;30288;50.514;9.678;2023-11-19T01:09:06;1.95;;;1.20;;
29902;SDS011;30288;50.514;9.678;2023-11-19T01:11:19;2.75;;;1.50;;
29902;SDS011;30288;50.514;9.678;2023-11-19T01:13:23;3.55;;;1.30;;
29902;SDS011;30288;50.514;9.678;2023-11-19T01:15:29;2.35;;;1.33;;
29902;SDS011;30288;50.514;9.678;2023-11-19T01:17:34;3.10;;;1.60;;
29902;SDS011;30288;50.514;9.678;2023-11-19T01:19:54;2.65;;;1.50;;
29902;SDS011;30288;50.514;9.678;2023-11-19T01:21:59;3.72;;;2.13;;
29902;SDS011;30288;50.514;9.678;2023-11-19T01:24:05;4.25;;;2.15;;
29902;SDS011;30288;50.514;9.678;2023-11-19T01:26:14;5.80;;;1.90;;
29902;SDS011;30288;50.514;9.678;2023-11-19T01:28:20;3.95;;;2.22;;
29902;SDS011;30288;50.514;9.678;2023-11-19T01:30:26;3.30;;;1.92;;
29902;SDS011;30288;50.514;9.678;2023-11-19T01:32:31;4.85;;;2.30;;
29902;SDS011;30288;50.514;9.678;2023-11-19T01:34:34;5.55;;;2.28;;
29902;SDS011;30288;50.514;9.678;2023-11-19T01:36:43;6.15;;;2.72;;
29902;SDS011;30288;50.514;9.678;2023-11-19T01:38:50;6.03;;;2.78;;
29902;SDS011;30288;50.514;9.678;2023-11-19T01:43:00;4.10;;;2.40;;
29902;SDS011;30288;50.514;9.678;2023-11-19T01:45:06;4.93;;;2.78;;
29902;SDS011;30288;50.514;9.678;2023-11-19T01:47:11;5.32;;;2.95;;
29902;SDS011;30288;50.514;9.678;2023-11-19T01:49:17;7.05;;;2.90;;
29902;SDS011;30288;50.514;9.678;2023-11-19T01:51:24;5.35;;;2.83;;
29902;SDS011;30288;50.514;9.678;2023-11-19T01:53:32;5.90;;;2.90;;
29902;SDS011;30288;50.514;9.678;2023-11-19T01:55:39;5.68;;;3.15;;
29902;SDS011;30288;50.514;9.678;2023-11-19T01:57:44;5.30;;;3.00;;
29902;SDS011;30288;50.514;9.678;2023-11-19T01:59:51;6.57;;;3.00;;
29902;SDS011;30288;50.514;9.678;2023-11-19T02:01:58;5.45;;;3.03;;
29902;SDS011;30288;50.514;9.678;2023-11-19T02:04:04;5.47;;;3.13;;
29902;SDS011;30288;50.514;9.678;2023-11-19T02:06:09;7.07;;;3.40;;
29902;SDS011;30288;50.514;9.678;2023-11-19T02:08:15;6.30;;;3.63;;
29902;SDS011;30288;50.514;9.678;2023-11-19T02:10:23;5.45;;;2.97;;
29902;SDS011;30288;50.514;9.678;2023-11-19T02:12:28;5.80;;;3.30;;
29902;SDS011;30288;50.514;9.678;2023-11-19T02:14:35;6.00;;;3.30;;
29902;SDS011;30288;50.514;9.678;2023-11-19T02:18:43;5.50;;;3.35;;
29902;SDS011;30288;50.514;9.678;2023-11-19T02:20:48;6.10;;;3.75;;
29902;SDS011;30288;50.514;9.678;2023-11-19T02:22:55;7.45;;;4.03;;
29902;SDS011;30288;50.514;9.678;2023-11-19T02:25:02;8.02;;;4.25;;
29902;SDS011;30288;50.514;9.678;2023-11-19T02:27:15;7.25;;;4.32;;
29902;SDS011;30288;50.514;9.678;2023-11-19T02:29:33;9.27;;;4.45;;
29902;SDS011;30288;50.514;9.678;2023-11-19T02:31:39;6.68;;;4.07;;
29902;SDS011;30288;50.514;9.678;2023-11-19T02:33:42;9.63;;;5.20;;
29902;SDS011;30288;50.514;9.678;2023-11-19T02:35:47;7.88;;;4.60;;
29902;SDS011;30288;50.514;9.678;2023-11-19T02:37:50;8.88;;;5.55;;
29902;SDS011;30288;50.514;9.678;2023-11-19T02:39:55;6.88;;;4.65;;
29902;SDS011;30288;50.514;9.678;2023-11-19T02:42:05;8.27;;;5.38;;
29902;SDS011;30288;50.514;9.678;2023-11-19T02:44:08;8.10;;;5.40;;
29902;SDS011;30288;50.514;9.678;2023-11-19T02:46:18;7.32;;;5.15;;
29902;SDS011;30288;50.514;9.678;2023-11-19T02:48:23;7.82;;;5.28;;
29902;SDS011;30288;50.514;9.678;2023-11-19T02:50:28;7.78;;;5.00;;
29902;SDS011;30288;50.514;9.678;2023-11-19T02:52:33;7.82;;;5.10;;
29902;SDS011;30288;50.514;9.678;2023-11-19T02:54:39;7.82;;;5.38;;
29902;SDS011;30288;50.514;9.678;2023-11-19T02:56:45;8.05;;;5.22;;
29902;SDS011;30288;50.514;9.678;2023-11-19T02:58:57;11.60;;;5.43;;
29902;SDS011;30288;50.514;9.678;2023-11-19T03:01:05;9.30;;;5.25;;
29902;SDS011;30288;50.514;9.678;2023-11-19T03:03:17;8.70;;;5.63;;
29902;SDS011;30288;50.514;9.678;2023-11-19T03:05:24;9.95;;;5.75;;
29902;SDS011;30288;50.514;9.678;2023-11-19T03:07:32;9.90;;;6.22;;
29902;SDS011;30288;50.514;9.678;2023-11-19T03:09:37;8.65;;;5.90;;
29902;SDS011;30288;50.514;9.678;2023-11-19T03:11:43;10.50;;;6.03;;
29902;SDS011;30288;50.514;9.678;2023-11-19T03:13:49;10.63;;;6.50;;
29902;SDS011;30288;50.514;9.678;2023-11-19T03:15:54;9.68;;;6.57;;
29902;SDS011;30288;50.514;9.678;2023-11-19T03:18:00;10.40;;;6.57;;
29902;SDS011;30288;50.514;9.678;2023-11-19T03:20:07;8.68;;;6.18;;
29902;SDS011;30288;50.514;9.678;2023-11-19T03:22:16;9.80;;;6.32;;
29902;SDS011;30288;50.514;9.678;2023-11-19T03:24:19;8.95;;;6.22;;
29902;SDS011;30288;50.514;9.678;2023-11-19T03:26:26;8.15;;;5.63;;
29902;SDS011;30288;50.514;9.678;2023-11-19T03:28:32;10.18;;;5.90;;
29902;SDS011;30288;50.514;9.678;2023-11-19T03:30:38;9.13;;;6.05;;
29902;SDS011;30288;50.514;9.678;2023-11-19T03:32:43;8.60;;;6.07;;
29902;SDS011;30288;50.514;9.678;2023-11-19T03:34:49;8.23;;;5.28;;
29902;SDS011;30288;50.514;9.678;2023-11-19T03:36:57;7.40;;;5.18;;
29902;SDS011;30288;50.514;9.678;2023-11-19T03:39:02;8.88;;;5.28;;
29902;SDS011;30288;50.514;9.678;2023-11-19T03:41:11;9.02;;;5.20;;
29902;SDS011;30288;50.514;9.678;2023-11-19T03:43:18;6.75;;;4.43;;
29902;SDS011;30288;50.514;9.678;2023-11-19T03:45:23;7.45;;;4.95;;
29902;SDS011;30288;50.514;9.678;2023-11-19T03:47:29;7.88;;;5.10;;
29902;SDS011;30288;50.514;9.678;2023-11-19T03:51:37;7.82;;;5.03;;
29902;SDS011;30288;50.514;9.678;2023-11-19T03:53:45;7.95;;;5.15;;
29902;SDS011;30288;50.514;9.678;2023-11-19T03:55:50;7.53;;;4.78;;
29902;SDS011;30288;50.514;9.678;2023-11-19T03:57:55;7.97;;;4.80;;
29902;SDS011;30288;50.514;9.678;2023-11-19T04:00:01;6.82;;;4.55;;
29902;SDS011;30288;50.514;9.678;2023-11-19T04:02:13;6.87;;;4.80;;
29902;SDS011;30288;50.514;9.678;2023-11-19T04:04:20;7.85;;;4.55;;
29902;SDS011;30288;50.514;9.678;2023-11-19T04:06:25;10.55;;;5.15;;
29902;SDS011;30288;50.514;9.678;2023-11-19T04:08:31;6.88;;;4.20;;
29902;SDS011;30288;50.514;9.678;2023-11-19T04:10:39;6.38;;;4.00;;
29902;SDS011;30288;50.514;9.678;2023-11-19T04:12:44;6.85;;;4.32;;
29902;SDS011;30288;50.514;9.678;2023-11-19T04:14:50;6.93;;;4.00;;
29902;SDS011;30288;50.514;9.678;2023-11-19T04:16:55;6.25;;;3.90;;
29902;SDS011;30288;50.514;9.678;2023-11-19T04:19:00;7.13;;;3.92;;
29902;SDS011;30288;50.514;9.678;2023-11-19T04:21:06;6.57;;;3.90;;
29902;SDS011;30288;50.514;9.678;2023-11-19T04:23:09;5.53;;;3.53;;
29902;SDS011;30288;50.514;9.678;2023-11-19T04:25:15;7.13;;;3.60;;
29902;SDS011;30288;50.514;9.678;2023-11-19T04:27:21;5.50;;;3.25;;
29902;SDS011;30288;50.514;9.678;2023-11-19T04:29:27;6.20;;;3.22;;
29902;SDS011;30288;50.514;9.678;2023-11-19T04:31:32;5.40;;;2.90;;
29902;SDS011;30288;50.514;9.678;2023-11-19T04:33:38;5.78;;;3.00;;
29902;SDS011;30288;50.514;9.678;2023-11-19T04:35:44;6.07;;;2.92;;
29902;SDS011;30288;50.514;9.678;2023-11-19T04:37:47;5.45;;;2.90;;
29902;SDS011;30288;50.514;9.678;2023-11-19T04:39:52;5.07;;;2.80;;
29902;SDS011;30288;50.514;9.678;2023-11-19T04:41:57;6.63;;;3.58;;
29902;SDS011;30288;50.514;9.678;2023-11-19T04:44:05;4.85;;;2.88;;
29902;SDS011;30288;50.514;9.678;2023-11-19T04:46:11;6.70;;;2.65;;
29902;SDS011;30288;50.514;9.678;2023-11-19T04:48:17;7.75;;;3.00;;
29902;SDS011;30288;50.514;9.678;2023-11-19T04:50:22;5.30;;;2.83;;
29902;SDS011;30288;50.514;9.678;2023-11-19T04:52:28;5.32;;;2.42;;
29902;SDS011;30288;50.514;9.678;2023-11-19T04:54:34;5.32;;;3.38;;
29902;SDS011;30288;50.514;9.678;2023-11-19T04:56:40;6.75;;;2.70;;
29902;SDS011;30288;50.514;9.678;2023-11-19T04:58:49;5.35;;;2.58;;
29902;SDS011;30288;50.514;9.678;2023-11-19T05:00:56;5.45;;;2.45;;
29902;SDS011;30288;50.514;9.678;2023-11-19T05:03:02;4.43;;;2.78;;
29902;SDS011;30288;50.514;9.678;2023-11-19T05:05:08;5.40;;;2.90;;
29902;SDS011;30288;50.514;9.678;2023-11-19T05:07:14;6.63;;;3.28;;
29902;SDS011;30288;50.514;9.678;2023-11-19T05:09:20;5.13;;;3.10;;
29902;SDS011;30288;50.514;9.678;2023-11-19T05:11:25;8.07;;;3.00;;
29902;SDS011;30288;50.514;9.678;2023-11-19T05:13:30;5.03;;;2.70;;
29902;SDS011;30288;50.514;9.678;2023-11-19T05:15:35;7.03;;;3.15;;
29902;SDS011;30288;50.514;9.678;2023-11-19T05:19:46;5.22;;;3.08;;
29902;SDS011;30288;50.514;9.678;2023-11-19T05:21:52;8.40;;;3.47;;
29902;SDS011;30288;50.514;9.678;2023-11-19T05:23:57;7.53;;;3.47;;
29902;SDS011;30288;50.514;9.678;2023-11-19T05:26:02;7.47;;;3.90;;
29902;SDS011;30288;50.514;9.678;2023-11-19T05:28:09;5.63;;;3.50;;
29902;SDS011;30288;50.514;9.678;2023-11-19T05:30:16;6.05;;;3.72;;
29902;SDS011;30288;50.514;9.678;2023-11-19T05:32:21;6.07;;;3.47;;
29902;SDS011;30288;50.514;9.678;2023-11-19T05:34:27;7.18;;;4.22;;
29902;SDS011;30288;50.514;9.678;2023-11-19T05:36:33;6.90;;;4.30;;
29902;SDS011;30288;50.514;9.678;2023-11-19T05:38:38;6.90;;;4.25;;
29902;SDS011;30288;50.514;9.678;2023-11-19T05:42:49;7.88;;;5.03;;
29902;SDS011;30288;50.514;9.678;2023-11-19T05:44:55;8.90;;;6.05;;
29902;SDS011;30288;50.514;9.678;2023-11-19T05:47:00;10.30;;;6.57;;
29902;SDS011;30288;50.514;9.678;2023-11-19T05:49:05;11.50;;;6.25;;
29902;SDS011;30288;50.514;9.678;2023-11-19T05:51:13;9.00;;;5.90;;
29902;SDS011;30288;50.514;9.678;2023-11-19T05:53:19;9.27;;;5.78;;
29902;SDS011;30288;50.514;9.678;2023-11-19T05:55:23;9.88;;;6.43;;
29902;SDS011;30288;50.514;9.678;2023-11-19T05:57:29;11.27;;;6.35;;
29902;SDS011;30288;50.514;9.678;2023-11-19T05:59:48;9.18;;;6.15;;
29902;SDS011;30288;50.514;9.678;2023-11-19T06:01:53;11.63;;;6.68;;
29902;SDS011;30288;50.514;9.678;2023-11-19T06:03:58;8.75;;;6.53;;
29902;SDS011;30288;50.514;9.678;2023-11-19T06:06:02;9.88;;;7.85;;
29902;SDS011;30288;50.514;9.678;2023-11-19T06:08:10;10.55;;;7.10;;
29902;SDS011;30288;50.514;9.678;2023-11-19T06:10:17;9.77;;;7.18;;
29902;SDS011;30288;50.514;9.678;2023-11-19T06:12:22;10.65;;;6.80;;
29902;SDS011;30288;50.514;9.678;2023-11-19T06:14:29;9.57;;;7.10;;
29902;SDS011;30288;50.514;9.678;2023-11-19T06:16:35;9.95;;;6.97;;
29902;SDS011;30288;50.514;9.678;2023-11-19T06:18:42;9.73;;;6.85;;
29902;SDS011;30288;50.514;9.678;2023-11-19T06:20:48;7.97;;;5.90;;
29902;SDS011;30288;50.514;9.678;2023-11-19T06:22:53;8.90;;;5.70;;
29902;SDS011;30288;50.514;9.678;2023-11-19T06:25:03;7.93;;;5.30;;
29902;SDS011;30288;50.514;9.678;2023-11-19T06:27:09;9.98;;;5.38;;
29902;SDS011;30288;50.514;9.678;2023-11-19T06:29:15;9.13;;;5.30;;
29902;SDS011;30288;50.514;9.678;2023-11-19T06:31:21;7.78;;;5.10;;
29902;SDS011;30288;50.514;9.678;2023-11-19T06:33:26;6.82;;;4.65;;
29902;SDS011;30288;50.514;9.678;2023-11-19T06:35:32;8.07;;;5.50;;
29902;SDS011;30288;50.514;9.678;2023-11-19T06:37:38;7.45;;;4.40;;
29902;SDS011;30288;50.514;9.678;2023-11-19T06:39:45;6.88;;;4.60;;
29902;SDS011;30288;50.514;9.678;2023-11-19T06:43:56;7.03;;;3.85;;
29902;SDS011;30288;50.514;9.678;2023-11-19T06:45:58;8.02;;;4.05;;
29902;SDS011;30288;50.514;9.678;2023-11-19T06:48:04;7.47;;;4.57;;
29902;SDS011;30288;50.514;9.678;2023-11-19T06:50:10;8.43;;;4.28;;
29902;SDS011;30288;50.514;9.678;2023-11-19T06:52:16;7.82;;;4.55;;
29902;SDS011;30288;50.514;9.678;2023-11-19T06:54:22;5.97;;;3.80;;
29902;SDS011;30288;50.514;9.678;2023-11-19T06:56:28;5.25;;;3.15;;
29902;SDS011;30288;50.514;9.678;2023-11-19T06:58:38;7.88;;;3.60;;
29902;SDS011;30288;50.514;9.678;2023-11-19T07:00:41;4.80;;;2.65;;
29902;SDS011;30288;50.514;9.678;2023-11-19T07:02:48;4.03;;;2.13;;
29902;SDS011;30288;50.514;9.678;2023-11-19T07:04:53;4.00;;;2.42;;
29902;SDS011;30288;50.514;9.678;2023-11-19T07:06:59;6.25;;;2.30;;
29902;SDS011;30288;50.514;9.678;2023-11-19T07:09:04;5.13;;;2.75;;
29902;SDS011;30288;50.514;9.678;2023-11-19T07:11:11;6.72;;;2.55;;
29902;SDS011;30288;50.514;9.678;2023-11-19T07:13:18;4.38;;;2.22;;
29902;SDS011;30288;50.514;9.678;2023-11-19T07:15:27;6.30;;;2.25;;
29902;SDS011;30288;50.514;9.678;2023-11-19T07:17:32;5.90;;;2.10;;
29902;SDS011;30288;50.514;9.678;2023-11-19T07:19:38;5.53;;;1.85;;
29902;SDS011;30288;50.514;9.678;2023-11-19T07:21:43;9.35;;;2.10;;
29902;SDS011;30288;50.514;9.678;2023-11-19T07:23:49;4.65;;;1.63;;
29902;SDS011;30288;50.514;9.678;2023-11-19T07:25:54;4.65;;;1.80;;
29902;SDS011;30288;50.514;9.678;2023-11-19T07:28:00;8.40;;;2.30;;
29902;SDS011;30288;50.514;9.678;2023-11-19T07:30:06;6.30;;;1.80;;
29902;SDS011;30288;50.514;9.678;2023-11-19T07:32:14;5.70;;;1.92;;
29902;SDS011;30288;50.514;9.678;2023-11-19T07:34:20;3.22;;;1.30;;
29902;SDS011;30288;50.514;9.678;2023-11-19T07:36:25;5.03;;;1.35;;
29902;SDS011;30288;50.514;9.678;2023-11-19T07:38:31;3.72;;;1.33;;
29902;SDS011;30288;50.514;9.678;2023-11-19T07:40:36;4.60;;;1.27;;
29902;SDS011;30288;50.514;9.678;2023-11-19T07:42:41;4.95;;;1.33;;
29902;SDS011;30288;50.514;9.678;2023-11-19T07:44:46;7.10;;;1.25;;
29902;SDS011;30288;50.514;9.678;2023-11-19T07:46:51;3.25;;;1.30;;
29902;SDS011;30288;50.514;9.678;2023-11-19T07:51:04;6.85;;;1.48;;
29902;SDS011;30288;50.514;9.678;2023-11-19T07:53:10;3.20;;;1.30;;
29902;SDS011;30288;50.514;9.678;2023-11-19T07:55:15;7.13;;;1.95;;
29902;SDS011;30288;50.514;9.678;2023-11-19T07:57:21;12.40;;;1.80;;
29902;SDS011;30288;50.514;9.678;2023-11-19T07:59:29;5.55;;;1.20;;
29902;SDS011;30288;50.514;9.678;2023-11-19T08:01:34;6.72;;;1.58;;
29902;SDS011;30288;50.514;9.678;2023-11-19T08:03:39;9.25;;;2.00;;
29902;SDS011;30288;50.514;9.678;2023-11-19T08:06:03;6.43;;;2.20;;
29902;SDS011;30288;50.514;9.678;2023-11-19T08:08:08;6.20;;;2.10;;
29902;SDS011;30288;50.514;9.678;2023-11-19T08:10:13;6.13;;;2.05;;
29902;SDS011;30288;50.514;9.678;2023-11-19T08:12:19;7.85;;;2.22;;
29902;SDS011;30288;50.514;9.678;2023-11-19T08:14:24;7.95;;;2.00;;
29902;SDS011;30288;50.514;9.678;2023-11-19T08:16:29;5.15;;;2.15;;
29902;SDS011;30288;50.514;9.678;2023-11-19T08:18:34;5.40;;;1.90;;
29902;SDS011;30288;50.514;9.678;2023-11-19T08:20:40;8.55;;;2.22;;
29902;SDS011;30288;50.514;9.678;2023-11-19T08:22:49;7.13;;;1.90;;
29902;SDS011;30288;50.514;9.678;2023-11-19T08:24:54;6.68;;;2.10;;
29902;SDS011;30288;50.514;9.678;2023-11-19T08:26:59;6.05;;;2.00;;
29902;SDS011;30288;50.514;9.678;2023-11-19T08:29:05;5.45;;;1.67;;
29902;SDS011;30288;50.514;9.678;2023-11-19T08:31:10;5.43;;;1.90;;
29902;SDS011;30288;50.514;9.678;2023-11-19T08:33:16;6.95;;;2.45;;
29902;SDS011;30288;50.514;9.678;2023-11-19T08:35:24;4.28;;;2.38;;
29902;SDS011;30288;50.514;9.678;2023-11-19T08:37:29;9.30;;;3.00;;
29902;SDS011;30288;50.514;9.678;2023-11-19T08:39:38;5.63;;;3.10;;
29902;SDS011;30288;50.514;9.678;2023-11-19T08:41:44;6.82;;;2.72;;
29902;SDS011;30288;50.514;9.678;2023-11-19T08:43:49;5.72;;;2.90;;
29902;SDS011;30288;50.514;9.678;2023-11-19T08:45:54;8.15;;;2.97;;
29902;SDS011;30288;50.514;9.678;2023-11-19T08:48:00;6.47;;;2.25;;
29902;SDS011;30288;50.514;9.678;2023-11-19T08:50:06;7.13;;;2.47;;
29902;SDS011;30288;50.514;9.678;2023-11-19T08:52:10;6.95;;;2.67;;
29902;SDS011;30288;50.514;9.678;2023-11-19T08:54:15;9.32;;;1.80;;
29902;SDS011;30288;50.514;9.678;2023-11-19T08:56:24;8.00;;;2.10;;
29902;SDS011;30288;50.514;9.678;2023-11-19T08:58:34;5.78;;;2.47;;
29902;SDS011;30288;50.514;9.678;2023-11-19T09:00:39;5.53;;;2.20;;
29902;SDS011;30288;50.514;9.678;2023-11-19T09:02:45;5.70;;;2.45;;
29902;SDS011;30288;50.514;9.678;2023-11-19T09:04:51;7.65;;;2.13;;
29902;SDS011;30288;50.514;9.678;2023-11-19T09:06:57;8.75;;;2.17;;
29902;SDS011;30288;50.514;9.678;2023-11-19T09:09:02;9.65;;;2.17;;
29902;SDS011;30288;50.514;9.678;2023-11-19T09:11:08;11.93;;;2.30;;
29902;SDS011;30288;50.514;9.678;2023-11-19T09:13:16;5.90;;;1.77;;
29902;SDS011;30288;50.514;9.678;2023-11-19T09:15:19;9.55;;;2.97;;
29902;SDS011;30288;50.514;9.678;2023-11-19T09:17:24;5.05;;;1.70;;
29902;SDS011;30288;50.514;9.678;2023-11-19T09:19:32;6.28;;;1.67;;
29902;SDS011;30288;50.514;9.678;2023-11-19T09:21:37;7.00;;;2.38;;
29902;SDS011;30288;50.514;9.678;2023-11-19T09:23:43;5.22;;;1.60;;
29902;SDS011;30288;50.514;9.678;2023-11-19T09:25:49;6.28;;;2.00;;
29902;SDS011;30288;50.514;9.678;2023-11-19T09:27:51;4.38;;;1.40;;
29902;SDS011;30288;50.514;9.678;2023-11-19T09:29:59;6.88;;;1.77;;
29902;SDS011;30288;50.514;9.678;2023-11-19T09:32:06;7.35;;;1.73;;
29902;SDS011;30288;50.514;9.678;2023-11-19T09:34:11;7.35;;;1.70;;
29902;SDS011;30288;50.514;9.678;2023-11-19T09:36:16;7.25;;;1.65;;
29902;SDS011;30288;50.514;9.678;2023-11-19T09:38:21;8.38;;;2.05;;
29902;SDS011;30288;50.514;9.678;2023-11-19T09:40:27;6.18;;;1.60;;
29902;SDS011;30288;50.514;9.678;2023-11-19T09:42:33;7.60;;;1.65;;
29902;SDS011;30288;50.514;9.678;2023-11-19T09:44:45;6.10;;;1.38;;
29902;SDS011;30288;50.514;9.678;2023-11-19T09:46:55;8.00;;;1.60;;
29902;SDS011;30288;50.514;9.678;2023-11-19T09:49:03;9.07;;;1.90;;
29902;SDS011;30288;50.514;9.678;2023-11-19T09:51:10;8.13;;;1.75;;
29902;SDS011;30288;50.514;9.678;2023-11-19T09:53:16;5.45;;;1.42;;
29902;SDS011;30288;50.514;9.678;2023-11-19T09:55:22;5.50;;;1.50;;
29902;SDS011;30288;50.514;9.678;2023-11-19T09:57:27;7.13;;;1.90;;
29902;SDS011;30288;50.514;9.678;2023-11-19T09:59:37;6.05;;;1.25;;
29902;SDS011;30288;50.514;9.678;2023-11-19T10:01:44;9.57;;;1.70;;
29902;SDS011;30288;50.514;9.678;2023-11-19T10:03:53;9.45;;;1.80;;
29902;SDS011;30288;50.514;9.678;2023-11-19T10:06:01;6.20;;;1.55;;
29902;SDS011;30288;50.514;9.678;2023-11-19T10:08:06;5.78;;;1.38;;
29902;SDS011;30288;50.514;9.678;2023-11-19T10:10:12;11.60;;;1.77;;
29902;SDS011;30288;50.514;9.678;2023-11-19T10:12:20;8.57;;;2.13;;
29902;SDS011;30288;50.514;9.678;2023-11-19T10:14:25;6.05;;;1.90;;
29902;SDS011;30288;50.514;9.678;2023-11-19T10:16:34;9.55;;;1.92;;
29902;SDS011;30288;50.514;9.678;2023-11-19T10:18:42;7.38;;;2.28;;
29902;SDS011;30288;50.514;9.678;2023-11-19T10:20:49;10.32;;;1.95;;
29902;SDS011;30288;50.514;9.678;2023-11-19T10:22:55;8.52;;;1.63;;
29902;SDS011;30288;50.514;9.678;2023-11-19T10:25:00;16.27;;;2.03;;
29902;SDS011;30288;50.514;9.678;2023-11-19T10:27:06;7.53;;;1.42;;
29902;SDS011;30288;50.514;9.678;2023-11-19T10:29:12;11.13;;;2.03;;
29902;SDS011;30288;50.514;9.678;2023-11-19T10:31:19;8.60;;;1.77;;
29902;SDS011;30288;50.514;9.678;2023-11-19T10:33:29;14.57;;;2.03;;
29902;SDS011;30288;50.514;9.678;2023-11-19T10:35:36;8.10;;;1.63;;
29902;SDS011;30288;50.514;9.678;2023-11-19T10:38:01;13.93;;;2.35;;
29902;SDS011;30288;50.514;9.678;2023-11-19T10:40:17;6.90;;;1.80;;
29902;SDS011;30288;50.514;9.678;2023-11-19T10:42:20;9.32;;;2.00;;
29902;SDS011;30288;50.514;9.678;2023-11-19T10:44:32;8.32;;;2.15;;
29902;SDS011;30288;50.514;9.678;2023-11-19T10:46:38;26.10;;;2.53;;
29902;SDS011;30288;50.514;9.678;2023-11-19T10:48:45;11.82;;;2.58;;
29902;SDS011;30288;50.514;9.678;2023-11-19T10:50:53;9.15;;;2.17;;
29902;SDS011;30288;50.514;9.678;2023-11-19T10:53:02;8.95;;;1.70;;
29902;SDS011;30288;50.514;9.678;2023-11-19T10:55:08;15.13;;;1.85;;
29902;SDS011;30288;50.514;9.678;2023-11-19T10:57:19;12.02;;;2.88;;
29902;SDS011;30288;50.514;9.678;2023-11-19T10:59:26;9.27;;;2.03;;
29902;SDS011;30288;50.514;9.678;2023-11-19T11:01:38;11.63;;;2.13;;
29902;SDS011;30288;50.514;9.678;2023-11-19T11:05:56;9.43;;;1.70;;
29902;SDS011;30288;50.514;9.678;2023-11-19T11:08:02;11.82;;;2.28;;
29902;SDS011;30288;50.514;9.678;2023-11-19T11:10:10;14.35;;;2.17;;
29902;SDS011;30288;50.514;9.678;2023-11-19T11:12:14;11.00;;;1.83;;
29902;SDS011;30288;50.514;9.678;2023-11-19T11:14:22;22.98;;;3.08;;
29902;SDS011;30288;50.514;9.678;2023-11-19T11:16:29;9.38;;;2.53;;
29902;SDS011;30288;50.514;9.678;2023-11-19T11:18:36;12.13;;;2.03;;
29902;SDS011;30288;50.514;9.678;2023-11-19T11:20:41;11.20;;;2.10;;
29902;SDS011;30288;50.514;9.678;2023-11-19T11:22:50;14.05;;;2.55;;
29902;SDS011;30288;50.514;9.678;2023-11-19T11:25:16;10.63;;;2.38;;
29902;SDS011;30288;50.514;9.678;2023-11-19T11:30:18;14.55;;;2.30;;
29902;SDS011;30288;50.514;9.678;2023-11-19T11:32:38;15.82;;;2.55;;
29902;SDS011;30288;50.514;9.678;2023-11-19T11:37:36;14.07;;;2.35;;
29902;SDS011;30288;50.514;9.678;2023-11-19T11:39:52;15.35;;;3.28;;
29902;SDS011;30288;50.514;9.678;2023-11-19T11:47:02;15.13;;;2.75;;
29902;SDS011;30288;50.514;9.678;2023-11-19T11:49:08;12.80;;;2.75;;
29902;SDS011;30288;50.514;9.678;2023-11-19T11:51:14;17.73;;;2.40;;
29902;SDS011;30288;50.514;9.678;2023-11-19T11:53:20;16.67;;;2.78;;
29902;SDS011;30288;50.514;9.678;2023-11-19T11:55:33;18.23;;;2.47;;
29902;SDS011;30288;50.514;9.678;2023-11-19T11:57:40;15.07;;;2.53;;
29902;SDS011;30288;50.514;9.678;2023-11-19T11:59:45;19.20;;;2.38;;
29902;SDS011;30288;50.514;9.678;2023-11-19T12:01:57;21.45;;;2.65;;
29902;SDS011;30288;50.514;9.678;2023-11-19T12:04:04;15.75;;;2.60;;
29902;SDS011;30288;50.514;9.678;2023-11-19T12:06:10;14.85;;;3.03;;
29902;SDS011;30288;50.514;9.678;2023-11-19T12:10:29;15.43;;;3.15;;
29902;SDS011;30288;50.514;9.678;2023-11-19T12:12:35;18.20;;;4.13;;
29902;SDS011;30288;50.514;9.678;2023-11-19T12:17:14;23.25;;;3.25;;
29902;SDS011;30288;50.514;9.678;2023-11-19T12:19:54;19.70;;;2.58;;
29902;SDS011;30288;50.514;9.678;2023-11-19T12:22:01;13.77;;;2.65;;
29902;SDS011;30288;50.514;9.678;2023-11-19T12:24:15;21.20;;;2.92;;
29902;SDS011;30288;50.514;9.678;2023-11-19T12:26:24;12.07;;;2.50;;
29902;SDS011;30288;50.514;9.678;2023-11-19T12:28:40;17.88;;;2.63;;
29902;SDS011;30288;50.514;9.678;2023-11-19T12:30:45;11.90;;;2.90;;
29902;SDS011;30288;50.514;9.678;2023-11-19T12:32:51;16.20;;;3.30;;
29902;SDS011;30288;50.514;9.678;2023-11-19T12:34:58;14.50;;;2.30;;
29902;SDS011;30288;50.514;9.678;2023-11-19T12:37:03;14.32;;;3.60;;
29902;SDS011;30288;50.514;9.678;2023-11-19T12:39:11;17.05;;;3.53;;
29902;SDS011;30288;50.514;9.678;2023-11-19T12:41:17;15.40;;;3.65;;
29902;SDS011;30288;50.514;9.678;2023-11-19T12:43:25;11.68;;;2.33;;
29902;SDS011;30288;50.514;9.678;2023-11-19T12:45:34;18.20;;;3.00;;
29902;SDS011;30288;50.514;9.678;2023-11-19T12:47:41;14.85;;;3.38;;
29902;SDS011;30288;50.514;9.678;2023-11-19T12:49:55;12.38;;;2.78;;
29902;SDS011;30288;50.514;9.678;2023-11-19T12:52:01;13.95;;;2.22;;
29902;SDS011;30288;50.514;9.678;2023-11-19T12:54:16;9.52;;;2.63;;
29902;SDS011;30288;50.514;9.678;2023-11-19T12:56:21;12.38;;;2.38;;
29902;SDS011;30288;50.514;9.678;2023-11-19T12:58:32;12.23;;;2.50;;
29902;SDS011;30288;50.514;9.678;2023-11-19T13:00:40;11.30;;;2.55;;
29902;SDS011;30288;50.514;9.678;2023-11-19T13:02:45;14.85;;;2.55;;
29902;SDS011;30288;50.514;9.678;2023-11-19T13:04:49;9.77;;;2.35;;
29902;SDS011;30288;50.514;9.678;2023-11-19T13:06:54;13.65;;;2.50;;
29902;SDS011;30288;50.514;9.678;2023-11-19T13:09:01;13.70;;;2.80;;
29902;SDS011;30288;50.514;9.678;2023-11-19T13:11:07;11.30;;;2.30;;
29902;SDS011;30288;50.514;9.678;2023-11-19T13:13:12;12.13;;;2.70;;
29902;SDS011;30288;50.514;9.678;2023-11-19T13:15:26;11.13;;;2.58;;
29902;SDS011;30288;50.514;9.678;2023-11-19T13:17:31;10.88;;;2.33;;